Pagrindinis puslapis
METAR-TAF:

METAR-TAF

Oro uostai :

Brestas, Baltarusija

platuma: 52-06-30N, ilguma: 023-53-48E, Aukštis: 143 m

Dabartinis oras

Ataskaita buvo paskelbta 43 minutes, ne 09:00 UTC
Vėjas 2 kt iš Pietų
Temperatūra 16°C
Drėgmė 63%
Slėgis 1016 hPa
Matomumas: 7000 m

METAR: UMBB 180900Z 18001MPS 7000 NSC 16/09 Q1016 R29/CLRD// NOSIG

Laikas: 12:43 (09:43 UTC)

Prognozė

Ataskaita buvo paskelbta 1 valandą ir 38 minutes, ne 08:05 UTC
Prognozė galioja nuo 18 metu 09 UTC su 18 metu 18 UTC
Vėjas 10 kt iš Pietų
Matomumas: 6000 m
Išsisklaidę debesys ne aukštis 2000 ft

TAF: UMBB 180805Z 1809/1818 19005MPS 6000 SCT020

Orai ataskaitas ir orų prognozės (METAR, TAF).

turimą stotys yra geltonos ir raudonos taškus žemėlapyje.

Perkelti pele per norėdami pamatyti stoties vardą.

Tada spustelėkite, norėdami matyti oro stebėjimo ir prognozės.

Norėdami pakeisti žemėlapį: spustelėkite ant žalios mygtukų su juodo kryžiaus žemyn,; žalią mygtuką su brūkšneliu, jei norite nutolinti; arba žalių rodyklių gretimoms žemėlapius.


METAR-TAF: